Time;durP1;ratioP1;P1;durP2;ratioP2;P2;SDS_P1;SDS_P2;PMS_P1;PMS_P2;Temp;Humidity;BMP_temperature;BMP_pressure;BME280_temperature;BME280_humidity;BME280_pressure;Samples;Min_cycle;Max_cycle;Signal;HPM_P1;HPM_P2
2022/08/24 00:02:04;;;;;;;8.60;3.53;;;;;;;19.01;88.00;100077.78;5050931;28;20087;-67
2022/08/24 00:04:30;;;;;;;4.68;3.30;;;;;;;19.01;88.67;100074.25;5050507;28;20029;-68
2022/08/24 00:06:56;;;;;;;5.93;3.50;;;;;;;18.95;89.18;100082.72;5051301;28;20498;-68
2022/08/24 00:09:21;;;;;;;6.13;3.60;;;;;;;18.90;89.45;100077.66;5050398;28;20052;-68
2022/08/24 00:11:47;;;;;;;5.57;4.20;;;;;;;18.90;90.33;100082.16;5050513;28;20357;-68
2022/08/24 00:14:12;;;;;;;9.73;3.85;;;;;;;18.88;90.92;100084.13;5050050;28;20406;-67
2022/08/24 00:16:39;;;;;;;7.18;3.92;;;;;;;18.86;91.20;100080.66;5050173;28;20044;-68
2022/08/24 00:19:04;;;;;;;5.28;3.55;;;;;;;18.86;90.91;100084.19;5051134;28;20115;-67
2022/08/24 00:21:30;;;;;;;5.78;3.60;;;;;;;18.87;91.21;100093.16;5050932;28;20096;-68
2022/08/24 00:23:55;;;;;;;5.72;3.47;;;;;;;18.80;91.46;100072.94;5051127;28;20426;-68
2022/08/24 00:26:21;;;;;;;6.47;3.67;;;;;;;18.83;91.08;100079.00;5051139;28;20021;-68
2022/08/24 00:28:47;;;;;;;4.28;3.10;;;;;;;18.73;91.65;100074.31;5050871;28;20585;-68
2022/08/24 00:31:13;;;;;;;7.25;4.28;;;;;;;18.74;91.88;100081.44;5050590;28;20028;-67
2022/08/24 00:33:39;;;;;;;5.75;4.15;;;;;;;18.69;92.46;100080.88;5050897;28;20422;-68
2022/08/24 00:36:05;;;;;;;8.98;3.80;;;;;;;18.70;92.50;100083.47;5050660;28;20029;-67
2022/08/24 00:38:34;;;;;;;5.30;3.60;;;;;;;18.66;93.20;100079.25;5050900;28;20039;-67
2022/08/24 00:41:00;;;;;;;6.20;3.80;;;;;;;18.67;93.24;100080.09;5050747;28;20036;-68
2022/08/24 00:43:27;;;;;;;6.15;4.05;;;;;;;18.63;93.68;100083.97;5050921;28;20032;-68
2022/08/24 00:46:14;;;;;;;7.13;4.22;;;;;;;18.63;93.93;100083.97;5050028;28;20104;-68
2022/08/24 00:48:44;;;;;;;5.63;3.63;;;;;;;18.63;94.11;100094.75;5050081;28;20033;-68
2022/08/24 00:51:28;;;;;;;6.00;3.75;;;;;;;18.60;94.38;100094.94;5048428;28;20522;-67
2022/08/24 00:54:00;;;;;;;7.03;3.55;;;;;;;18.58;94.33;100091.47;5049754;28;20052;-66
2022/08/24 00:56:31;;;;;;;5.53;3.83;;;;;;;18.57;94.29;100095.13;5058920;28;20074;-67
2022/08/24 00:59:04;;;;;;;6.72;4.00;;;;;;;18.54;95.35;100096.19;5069920;28;20359;-67
2022/08/24 01:01:32;;;;;;;6.55;4.10;;;;;;;18.53;96.05;100090.91;5070856;28;20029;-67
2022/08/24 01:03:58;;;;;;;5.35;3.80;;;;;;;18.55;96.71;100094.38;5067334;28;20032;-68
2022/08/24 01:06:25;;;;;;;5.97;4.05;;;;;;;18.54;96.99;100095.31;5070499;28;20098;-67
2022/08/24 01:08:50;;;;;;;7.03;4.32;;;;;;;18.51;97.26;100088.31;5057349;28;20379;-68
2022/08/24 01:11:20;;;;;;;5.65;3.70;;;;;;;18.44;97.05;100088.78;5050254;28;20033;-67
2022/08/24 01:13:49;;;;;;;7.07;4.45;;;;;;;18.43;97.24;100093.31;5050580;28;20097;-68
2022/08/24 01:18:48;;;;;;;6.65;4.25;;;;;;;18.38;97.21;100106.19;5054059;28;20029;-67
2022/08/24 01:19:14;;;;;;;6.45;4.53;;;;;;;18.37;97.84;100099.91;5054351;28;20683;-67
2022/08/24 01:21:54;;;;;;;6.65;4.05;;;;;;;18.39;97.86;100102.56;5054258;28;20104;-68
2022/08/24 01:24:19;;;;;;;6.07;4.18;;;;;;;18.40;97.98;100106.13;5054264;28;20056;-67
2022/08/24 01:26:48;;;;;;;8.68;4.57;;;;;;;18.38;98.13;100112.41;5054396;28;20056;-68
2022/08/24 01:29:17;;;;;;;6.53;4.53;;;;;;;18.41;98.18;100105.13;5054207;28;20086;-67
2022/08/24 01:31:43;;;;;;;6.57;4.43;;;;;;;18.43;98.34;100112.19;5053548;28;20140;-67
2022/08/24 01:34:10;;;;;;;6.88;4.10;;;;;;;18.42;98.78;100115.81;5054229;28;20438;-68
2022/08/24 01:36:40;;;;;;;7.65;4.38;;;;;;;18.34;98.46;100113.59;5054005;28;20020;-68
2022/08/24 01:39:27;;;;;;;6.60;4.35;;;;;;;18.25;98.13;100111.44;5056612;28;20470;-67
2022/08/24 01:41:53;;;;;;;6.45;4.40;;;;;;;18.19;97.91;100111.84;5053730;28;20525;-67
2022/08/24 01:44:20;;;;;;;16.95;4.72;;;;;;;18.17;98.38;100110.22;5054173;28;20077;-67
2022/08/24 01:46:52;;;;;;;7.22;4.65;;;;;;;18.16;98.71;100106.66;5053696;28;20025;-67
2022/08/24 01:49:19;;;;;;;6.47;4.18;;;;;;;18.16;98.74;100111.16;5053864;28;20501;-67
2022/08/24 01:51:45;;;;;;;7.18;5.10;;;;;;;18.12;99.08;100098.88;5053629;28;20070;-66
2022/08/24 01:54:11;;;;;;;6.40;4.18;;;;;;;18.10;98.97;100101.63;5053554;28;20045;-67
2022/08/24 01:56:37;;;;;;;8.07;4.78;;;;;;;18.05;99.13;100106.47;5053545;28;20059;-68
2022/08/24 01:59:03;;;;;;;5.78;4.32;;;;;;;17.95;99.10;100102.59;5053062;28;20061;-67
2022/08/24 02:01:33;;;;;;;9.40;4.68;;;;;;;17.93;99.95;100106.31;5052704;28;20730;-67
2022/08/24 02:04:01;;;;;;;6.40;4.38;;;;;;;17.86;100.00;100100.44;5052743;28;20486;-67
2022/08/24 02:06:26;;;;;;;7.20;4.68;;;;;;;17.84;100.00;100099.69;5052693;28;20029;-67
2022/08/24 02:08:52;;;;;;;7.43;4.20;;;;;;;17.83;100.00;100103.34;5053276;28;20462;-68
2022/08/24 02:11:17;;;;;;;8.05;4.93;;;;;;;17.86;100.00;100110.34;5053269;28;20071;-67
2022/08/24 02:13:43;;;;;;;6.05;4.47;;;;;;;17.85;100.00;100106.81;5052961;28;20032;-67
2022/08/24 02:16:09;;;;;;;7.88;5.30;;;;;;;17.89;100.00;100113.72;5053287;28;20029;-67
2022/08/24 02:18:36;;;;;;;7.43;4.93;;;;;;;17.88;100.00;100103.94;5053257;28;20021;-68
2022/08/24 02:21:02;;;;;;;7.38;4.72;;;;;;;17.81;100.00;100104.38;5053200;28;20021;-67
2022/08/24 02:23:27;;;;;;;14.88;4.15;;;;;;;17.70;100.00;100094.28;5053077;28;20395;-67
2022/08/24 02:25:54;;;;;;;6.30;4.80;;;;;;;17.71;100.00;100109.44;5051914;28;20055;-67
2022/08/24 02:28:20;;;;;;;7.05;4.72;;;;;;;17.62;100.00;100115.41;5050832;28;20117;-67
2022/08/24 02:30:46;;;;;;;6.75;4.53;;;;;;;17.61;100.00;100129.78;5052396;28;20464;-67
2022/08/24 02:33:12;;;;;;;7.07;4.68;;;;;;;17.71;100.00;100130.97;5052134;28;20031;-68
2022/08/24 02:35:37;;;;;;;9.52;5.30;;;;;;;17.82;100.00;100123.16;5052329;28;20036;-68
2022/08/24 02:38:03;;;;;;;6.68;4.75;;;;;;;17.86;100.00;100119.28;5051941;28;20376;-68
2022/08/24 02:40:29;;;;;;;9.75;5.43;;;;;;;17.85;100.00;100124.78;5052551;28;20048;-68
2022/08/24 02:42:54;;;;;;;8.65;5.03;;;;;;;17.89;100.00;100135.25;5052978;28;20029;-68
2022/08/24 02:45:20;;;;;;;8.00;4.60;;;;;;;17.81;100.00;100113.31;5051090;28;20029;-68
2022/08/24 02:47:46;;;;;;;7.53;5.22;;;;;;;17.88;100.00;100124.56;5052738;28;20033;-68
2022/08/24 02:50:13;;;;;;;7.90;4.55;;;;;;;17.86;100.00;100115.72;5052509;28;20090;-68
2022/08/24 02:52:40;;;;;;;7.90;5.18;;;;;;;17.84;100.00;100114.97;5051682;28;20372;-67
2022/08/24 02:55:09;;;;;;;7.32;4.70;;;;;;;17.81;100.00;100116.00;5062872;28;20416;-68
2022/08/24 02:57:34;;;;;;;11.30;4.80;;;;;;;17.79;100.00;100115.22;5071257;28;20103;-67
2022/08/24 03:00:00;;;;;;;7.88;4.65;;;;;;;17.68;100.00;100108.75;5071873;28;20020;-68
2022/08/24 03:02:25;;;;;;;7.53;4.50;;;;;;;17.71;100.00;100119.38;5071036;28;20525;-68
2022/08/24 03:04:52;;;;;;;6.07;4.60;;;;;;;17.65;100.00;100122.41;5072463;28;20033;-68
2022/08/24 03:07:18;;;;;;;6.32;4.80;;;;;;;17.57;100.00;100122.00;5071767;28;20605;-67
2022/08/24 03:09:43;;;;;;;7.07;4.68;;;;;;;17.50;100.00;100129.56;5051912;28;20128;-67
2022/08/24 03:12:09;;;;;;;7.63;4.97;;;;;;;17.49;100.00;100119.78;5053994;28;20115;-67
2022/08/24 03:14:35;;;;;;;6.60;4.82;;;;;;;17.47;100.00;100119.00;5051374;28;20025;-67
2022/08/24 03:17:00;;;;;;;6.90;4.68;;;;;;;17.42;100.00;100112.97;5051335;28;20051;-67
2022/08/24 03:19:26;;;;;;;7.38;4.47;;;;;;;17.42;100.00;100118.38;5051181;28;20048;-67
2022/08/24 03:21:53;;;;;;;6.82;4.82;;;;;;;17.38;100.00;100116.78;5051042;28;20021;-67
2022/08/24 03:24:18;;;;;;;8.52;4.70;;;;;;;17.35;100.00;100105.38;5051169;28;20029;-67
2022/08/24 03:26:44;;;;;;;10.10;4.93;;;;;;;17.35;100.00;100106.22;5051892;28;20032;-67
2022/08/24 03:29:09;;;;;;;7.85;5.63;;;;;;;17.35;100.00;100111.59;5051994;28;20063;-67
2022/08/24 03:31:34;;;;;;;8.05;5.55;;;;;;;17.35;100.00;100114.28;5051883;28;20476;-67
2022/08/24 03:34:00;;;;;;;7.82;5.18;;;;;;;17.35;100.00;100110.75;5051778;28;20025;-67
2022/08/24 03:36:25;;;;;;;8.40;5.10;;;;;;;17.28;100.00;100110.22;5051696;28;20021;-67
2022/08/24 03:38:51;;;;;;;7.63;5.00;;;;;;;17.19;100.00;100110.78;5051480;28;20028;-67
2022/08/24 03:41:17;;;;;;;7.65;4.63;;;;;;;17.15;100.00;100111.03;5051818;28;20033;-68
2022/08/24 03:43:45;;;;;;;7.97;5.03;;;;;;;17.12;100.00;100117.44;5051742;28;20403;-67
2022/08/24 03:46:12;;;;;;;8.13;4.85;;;;;;;17.13;100.00;100111.13;5051512;28;20021;-67
2022/08/24 03:48:39;;;;;;;6.28;4.68;;;;;;;17.10;100.00;100116.66;5052664;28;20161;-67
2022/08/24 03:51:06;;;;;;;8.18;4.82;;;;;;;17.07;100.00;100114.16;5070103;28;20024;-68
2022/08/24 03:53:32;;;;;;;6.93;4.82;;;;;;;17.02;100.00;100127.00;5070964;28;20109;-67
2022/08/24 03:55:57;;;;;;;8.45;5.47;;;;;;;17.01;100.00;100122.59;5071468;28;20472;-67
2022/08/24 03:58:23;;;;;;;9.80;5.55;;;;;;;17.00;100.00;100131.59;5071523;28;20414;-68
2022/08/24 04:00:48;;;;;;;8.00;4.80;;;;;;;16.99;100.00;100124.47;5071288;28;20031;-67
2022/08/24 04:03:14;;;;;;;7.07;5.45;;;;;;;16.95;100.00;100122.94;5069927;28;20430;-67
2022/08/24 04:05:41;;;;;;;9.18;5.63;;;;;;;16.91;100.00;100122.25;5071125;28;20051;-68
2022/08/24 04:08:07;;;;;;;8.07;4.85;;;;;;;16.89;100.00;100124.16;5064171;28;20025;-67
2022/08/24 04:10:33;;;;;;;8.05;5.18;;;;;;;16.88;100.00;100124.22;5051113;28;20032;-68
2022/08/24 04:13:02;;;;;;;7.63;4.65;;;;;;;16.89;100.00;100125.94;5050795;28;20020;-67
2022/08/24 04:15:28;;;;;;;6.95;4.85;;;;;;;16.91;100.00;100122.25;5051333;28;20104;-67
2022/08/24 04:17:54;;;;;;;8.90;5.50;;;;;;;16.89;100.00;100118.78;5051188;28;20025;-67
2022/08/24 04:20:19;;;;;;;7.65;5.53;;;;;;;16.89;100.00;100126.84;5049535;28;20029;-67
2022/08/24 04:22:45;;;;;;;8.85;5.88;;;;;;;16.87;100.00;100117.09;5051081;28;20412;-67
2022/08/24 04:25:11;;;;;;;6.43;5.00;;;;;;;16.80;100.00;100107.69;5050957;28;20387;-67
2022/08/24 04:27:37;;;;;;;7.57;5.38;;;;;;;16.84;100.00;100118.16;5050679;28;20059;-67
2022/08/24 04:30:04;;;;;;;10.23;5.05;;;;;;;16.82;100.00;100119.19;5048542;28;20025;-67
2022/08/24 04:32:31;;;;;;;8.50;5.55;;;;;;;16.77;100.00;100122.13;5050045;28;20437;-67
2022/08/24 04:34:57;;;;;;;10.93;6.03;;;;;;;16.71;100.00;100114.44;5050054;28;20039;-67
2022/08/24 04:37:24;;;;;;;13.07;6.28;;;;;;;16.78;100.00;100125.69;5049892;28;20021;-67
2022/08/24 04:39:50;;;;;;;9.07;5.97;;;;;;;16.81;100.00;100130.91;5050352;28;20446;-67
2022/08/24 04:42:16;;;;;;;11.10;5.70;;;;;;;16.80;100.00;100139.91;5050749;28;20124;-67
2022/08/24 04:44:42;;;;;;;7.57;5.20;;;;;;;16.80;100.00;100135.38;5050743;28;20112;-67
2022/08/24 04:47:08;;;;;;;9.80;5.70;;;;;;;16.80;100.00;100135.38;5050505;28;20112;-68
2022/08/24 04:49:35;;;;;;;8.52;5.15;;;;;;;16.87;100.00;100141.28;5051127;28;20029;-66
2022/08/24 04:52:00;;;;;;;10.07;5.35;;;;;;;16.91;100.00;100143.75;5054969;28;20029;-65
2022/08/24 04:54:26;;;;;;;10.57;5.78;;;;;;;16.91;100.00;100142.88;5054690;28;20677;-67
2022/08/24 04:56:52;;;;;;;6.38;5.28;;;;;;;16.94;100.00;100145.38;5065521;28;20136;-68
2022/08/24 04:59:17;;;;;;;8.35;5.78;;;;;;;16.93;100.00;100149.88;5074735;28;20028;-66
2022/08/24 05:01:43;;;;;;;12.30;5.85;;;;;;;16.93;100.00;100146.34;5074765;28;20096;-67
2022/08/24 05:04:08;;;;;;;8.63;5.53;;;;;;;16.93;100.00;100146.34;5071124;28;20024;-66
2022/08/24 05:06:34;;;;;;;7.30;5.45;;;;;;;16.94;100.00;100153.44;5074599;28;20036;-67
2022/08/24 05:09:01;;;;;;;9.15;5.90;;;;;;;16.98;100.00;100155.00;5060123;28;20029;-67
2022/08/24 05:11:27;;;;;;;8.13;5.90;;;;;;;17.01;100.00;100157.53;5054485;28;20464;-68
2022/08/24 05:13:54;;;;;;;8.52;6.25;;;;;;;17.02;100.00;100161.94;5054203;28;20079;-67
2022/08/24 05:16:22;;;;;;;7.43;5.82;;;;;;;17.06;100.00;100166.19;5052967;28;20445;-67
2022/08/24 05:18:48;;;;;;;8.98;6.35;;;;;;;17.06;100.00;100161.69;5054140;28;20122;-67
2022/08/24 05:21:17;;;;;;;8.48;6.05;;;;;;;17.16;100.00;100170.09;5054414;28;20661;-67
2022/08/24 05:23:43;;;;;;;8.57;6.20;;;;;;;17.16;100.00;100164.72;5053280;28;20029;-67
2022/08/24 05:26:19;;;;;;;14.25;6.32;;;;;;;17.25;100.00;100164.16;5053239;28;20116;-66
2022/08/24 05:28:46;;;;;;;7.80;5.97;;;;;;;17.35;100.00;100161.84;5053174;28;20037;-67
2022/08/24 05:31:16;;;;;;;8.40;6.03;;;;;;;17.45;100.00;100163.94;5052859;28;20079;-66
2022/08/24 05:33:42;;;;;;;10.43;6.15;;;;;;;17.53;100.00;100164.34;5053332;28;20500;-67
2022/08/24 05:36:17;;;;;;;9.30;5.95;;;;;;;17.62;100.00;100163.81;5053026;28;20031;-67
2022/08/24 05:38:43;;;;;;;9.32;6.07;;;;;;;17.74;100.00;100165.75;5053761;28;20390;-67
2022/08/24 05:41:09;;;;;;;7.82;5.75;;;;;;;17.82;100.00;100171.59;5053938;28;20196;-67
2022/08/24 05:43:34;;;;;;;11.40;6.35;;;;;;;17.92;100.00;100161.13;5053891;28;20025;-67
2022/08/24 05:46:00;;;;;;;8.48;6.10;;;;;;;18.14;100.00;100175.00;5056402;28;20040;-67
2022/08/24 05:48:25;;;;;;;8.68;6.20;;;;;;;18.28;100.00;100173.22;5053436;28;20025;-67
2022/08/24 05:50:55;;;;;;;9.02;6.55;;;;;;;18.42;100.00;100171.53;5052698;28;20475;-67
2022/08/24 05:53:21;;;;;;;8.45;6.43;;;;;;;18.56;99.94;100174.22;5052431;28;20057;-67
2022/08/24 05:55:47;;;;;;;7.60;6.00;;;;;;;18.67;99.43;100164.50;5052548;28;20021;-67
2022/08/24 05:58:13;;;;;;;10.18;5.78;;;;;;;19.05;98.65;100162.03;5052433;28;20025;-67
2022/08/24 06:00:38;;;;;;;7.40;5.60;;;;;;;19.39;96.00;100159.78;5053349;28;20032;-67
2022/08/24 06:03:03;;;;;;;9.63;5.60;;;;;;;19.58;92.96;100179.19;5053591;28;20036;-67
2022/08/24 06:05:29;;;;;;;8.35;5.93;;;;;;;19.72;91.42;100178.22;5053351;28;20024;-67
2022/08/24 06:07:54;;;;;;;7.20;5.47;;;;;;;19.81;90.74;100174.94;5052832;28;20483;-67
2022/08/24 06:10:20;;;;;;;5.88;4.45;;;;;;;20.04;89.78;100187.72;5053218;28;20054;-67
2022/08/24 06:12:45;;;;;;;10.40;5.18;;;;;;;20.13;88.37;100181.69;5052408;28;20029;-66
2022/08/24 06:15:12;;;;;;;9.43;4.93;;;;;;;20.24;86.69;100184.56;5053070;28;20028;-66
2022/08/24 06:17:38;;;;;;;7.18;4.85;;;;;;;20.40;85.50;100190.63;5053370;28;20024;-67
2022/08/24 06:20:06;;;;;;;7.55;4.53;;;;;;;20.60;84.37;100184.69;5051935;28;20023;-67
2022/08/24 06:22:32;;;;;;;7.35;4.90;;;;;;;20.82;82.71;100182.16;5053201;28;20369;-67
2022/08/24 06:27:41;;;;;;;8.63;5.05;;;;;;;21.33;79.47;100182.09;5051677;28;20086;-66
2022/08/24 06:30:08;;;;;;;7.20;4.38;;;;;;;21.56;76.85;100183.94;5050979;28;20033;-67
2022/08/24 06:32:35;;;;;;;10.70;4.65;;;;;;;21.75;76.15;100184.28;5040425;28;20495;-67
2022/08/24 06:35:01;;;;;;;7.03;4.38;;;;;;;21.93;74.94;100178.34;5036861;28;20045;-66
2022/08/24 06:37:27;;;;;;;7.53;4.40;;;;;;;22.06;72.39;100181.84;5048598;28;20021;-66
2022/08/24 06:39:53;;;;;;;8.13;4.38;;;;;;;22.25;71.97;100189.44;5036098;28;20112;-67
2022/08/24 06:42:19;;;;;;;7.15;4.50;;;;;;;22.43;71.44;100192.53;5032250;28;20121;-67
2022/08/24 06:44:44;;;;;;;7.07;4.28;;;;;;;22.66;70.55;100187.06;5031852;28;20022;-66
2022/08/24 06:47:11;;;;;;;6.05;3.85;;;;;;;22.94;69.41;100186.59;5032930;28;20070;-66
2022/08/24 06:49:37;;;;;;;6.35;3.90;;;;;;;23.15;66.87;100187.56;5046754;28;20032;-67
2022/08/24 06:52:06;;;;;;;8.15;3.80;;;;;;;23.28;65.72;100182.88;5052310;28;20029;-67
2022/08/24 06:54:33;;;;;;;7.28;3.85;;;;;;;23.50;65.56;100184.69;5052474;28;20051;-67
2022/08/24 06:56:58;;;;;;;7.93;3.83;;;;;;;23.74;64.31;100184.50;5052514;28;20102;-67
2022/08/24 06:59:28;;;;;;;8.43;4.22;;;;;;;24.04;63.32;100195.50;5047018;28;20048;-68
2022/08/24 07:01:57;;;;;;;8.05;4.10;;;;;;;24.26;62.49;100199.00;5052206;28;20029;-67
2022/08/24 07:04:26;;;;;;;7.05;3.92;;;;;;;24.51;61.88;100198.59;5052290;28;20099;-67
2022/08/24 07:06:53;;;;;;;6.95;3.92;;;;;;;24.83;60.46;100198.53;5040462;28;20053;-67
2022/08/24 07:09:19;;;;;;;8.27;3.67;;;;;;;25.46;59.44;100198.25;5046172;28;20032;-67
2022/08/24 07:11:44;;;;;;;7.03;4.45;;;;;;;25.96;56.35;100190.84;5051817;28;20079;-66
2022/08/24 07:14:10;;;;;;;9.75;3.80;;;;;;;26.60;56.75;100212.94;5051986;28;20033;-66
2022/08/24 07:16:36;;;;;;;9.32;3.88;;;;;;;27.07;53.16;100210.09;5051352;28;20025;-66
2022/08/24 07:19:03;;;;;;;5.13;3.60;;;;;;;27.29;51.23;100210.75;5051763;28;20036;-67
2022/08/24 07:21:31;;;;;;;8.70;3.80;;;;;;;27.63;50.52;100215.44;5052044;28;20013;-67
2022/08/24 07:23:59;;;;;;;7.25;3.33;;;;;;;27.91;49.25;100219.91;5051171;28;20067;-67
2022/08/24 07:26:26;;;;;;;6.43;3.38;;;;;;;28.17;48.07;100218.09;5051945;28;20031;-67
2022/08/24 07:28:58;;;;;;;9.80;3.40;;;;;;;28.34;47.17;100217.25;5051863;28;20040;-67
2022/08/24 07:31:23;;;;;;;7.13;3.63;;;;;;;28.48;46.19;100219.41;5051698;28;20036;-67
2022/08/24 07:33:49;;;;;;;7.55;3.60;;;;;;;28.74;45.63;100218.59;5050006;28;20473;-67
2022/08/24 07:36:16;;;;;;;4.68;3.20;;;;;;;29.08;44.39;100214.94;5033035;28;20048;-67
2022/08/24 07:38:41;;;;;;;7.28;3.40;;;;;;;29.33;43.80;100221.38;5039023;28;20029;-67
2022/08/24 07:41:07;;;;;;;5.80;3.33;;;;;;;29.45;44.68;100212.72;5031549;28;20421;-67
2022/08/24 07:43:32;;;;;;;5.47;3.03;;;;;;;29.79;43.33;100220.91;5033741;28;20018;-67
2022/08/24 07:45:58;;;;;;;4.95;3.28;;;;;;;30.03;42.74;100214.63;5051481;28;20587;-67
2022/08/24 07:48:24;;;;;;;5.00;3.15;;;;;;;30.13;42.88;100201.63;5049410;28;20017;-67
2022/08/24 07:50:49;;;;;;;5.30;3.65;;;;;;;30.33;42.33;100222.25;5030671;28;20057;-67
2022/08/24 07:53:15;;;;;;;7.65;3.47;;;;;;;30.42;41.72;100216.59;5029035;28;20049;-67
2022/08/24 07:55:40;;;;;;;5.65;2.80;;;;;;;30.72;41.37;100213.16;5053408;28;20037;-68
2022/08/24 07:58:06;;;;;;;6.40;3.03;;;;;;;30.83;40.49;100212.81;5050719;28;20025;-68
2022/08/24 08:00:31;;;;;;;5.72;3.47;;;;;;;30.73;41.12;100214.84;5049588;28;20025;-67
2022/08/24 08:02:57;;;;;;;5.13;3.30;;;;;;;30.94;41.45;100219.81;5048789;28;20646;-67
2022/08/24 08:05:23;;;;;;;6.45;3.20;;;;;;;31.35;40.17;100220.63;5051740;28;20031;-67
2022/08/24 08:07:49;;;;;;;5.50;2.70;;;;;;;31.65;38.89;100222.53;5047907;28;20039;-68
2022/08/24 08:10:15;;;;;;;7.75;3.00;;;;;;;31.56;38.39;100223.63;5035045;28;20053;-67
2022/08/24 08:12:41;;;;;;;4.97;2.80;;;;;;;31.67;38.53;100214.97;5030111;28;20106;-67
2022/08/24 08:15:08;;;;;;;7.75;3.25;;;;;;;31.91;38.93;100223.13;5038212;28;20024;-67
2022/08/24 08:17:36;;;;;;;7.38;2.90;;;;;;;32.06;38.12;100221.28;5049420;28;20045;-67
2022/08/24 08:20:04;;;;;;;5.05;2.80;;;;;;;32.22;37.20;100226.72;5048647;28;20021;-68
2022/08/24 08:25:14;;;;;;;5.47;2.80;;;;;;;32.75;36.40;100223.84;5044292;28;20071;-68
2022/08/24 08:27:39;;;;;;;7.53;2.80;;;;;;;32.95;37.05;100218.72;5050903;28;20028;-68
2022/08/24 08:30:05;;;;;;;4.75;2.40;;;;;;;33.30;36.23;100206.94;5034864;28;20021;-67
2022/08/24 08:32:30;;;;;;;5.20;2.40;;;;;;;33.62;35.55;100213.97;5030697;28;20483;-68
2022/08/24 08:34:56;;;;;;;4.75;2.58;;;;;;;33.87;36.02;100220.88;5048210;28;20032;-68
2022/08/24 08:37:22;;;;;;;3.45;2.25;;;;;;;34.13;35.20;100221.22;5049566;28;20032;-69
2022/08/24 08:39:47;;;;;;;4.50;2.45;;;;;;;34.27;33.72;100223.06;5048207;28;20119;-68
2022/08/24 08:42:40;;;;;;;6.20;2.67;;;;;;;34.19;35.21;100214.91;5030212;28;20037;-68
2022/08/24 08:45:25;;;;;;;5.00;2.60;;;;;;;34.16;34.32;100209.78;5049631;28;20025;-68
2022/08/24 08:48:13;;;;;;;3.95;2.20;;;;;;;34.11;34.32;100212.25;5049332;28;20025;-68
2022/08/24 08:51:04;;;;;;;5.65;2.50;;;;;;;34.18;35.03;100205.78;5050765;28;20029;-69
2022/08/24 08:53:32;;;;;;;5.85;2.58;;;;;;;33.98;34.66;100207.47;5046095;28;20037;-68
2022/08/24 08:56:35;;;;;;;4.28;2.33;;;;;;;34.17;35.08;100211.47;5029974;28;20034;-69
2022/08/24 08:59:13;;;;;;;8.20;2.47;;;;;;;34.47;34.85;100213.09;5041689;28;20033;-68
2022/08/24 09:01:47;;;;;;;4.60;2.10;;;;;;;34.77;34.59;100208.25;5049967;28;20575;-69
2022/08/24 09:04:24;;;;;;;8.50;2.17;;;;;;;34.65;34.01;100212.63;5052160;28;20728;-68
2022/08/24 09:07:11;;;;;;;4.32;2.25;;;;;;;34.37;34.58;100201.47;5044471;28;20029;-67
2022/08/24 09:09:48;;;;;;;5.57;2.00;;;;;;;34.70;34.49;100208.19;5045838;28;20462;-68
2022/08/24 09:12:19;;;;;;;4.03;2.33;;;;;;;35.01;33.15;100205.09;5037039;28;20108;-68
2022/08/24 09:15:22;;;;;;;7.70;2.72;;;;;;;34.91;32.41;100199.88;5030707;28;20029;-68
2022/08/24 09:18:12;;;;;;;8.18;2.15;;;;;;;35.02;33.78;100202.13;5030597;28;20017;-68
2022/08/24 09:21:16;;;;;;;5.38;2.40;;;;;;;34.94;34.72;100196.75;5030018;28;20044;-68
2022/08/24 09:23:54;;;;;;;;;;;;;;;35.14;32.18;100205.16;5030284;28;20030;-68
2022/08/24 09:26:24;;;;;;;4.95;1.98;;;;;;;35.33;33.08;100185.91;5030033;28;20371;-68
2022/08/24 09:29:11;;;;;;;3.67;2.33;;;;;;;35.31;32.64;100190.78;5029921;28;20087;-68
2022/08/24 09:31:49;;;;;;;4.82;2.30;;;;;;;35.52;32.53;100192.66;5029960;28;20106;-68
2022/08/24 09:34:24;;;;;;;3.45;2.08;;;;;;;35.89;32.87;100194.09;5029782;28;20033;-67
2022/08/24 09:37:17;;;;;;;3.83;2.13;;;;;;;36.22;31.63;100189.47;5032980;28;20392;-67
2022/08/24 09:40:03;;;;;;;3.55;2.00;;;;;;;36.60;31.56;100182.31;5034038;28;20029;-67
2022/08/24 09:43:09;;;;;;;4.97;1.90;;;;;;;36.92;31.19;100184.25;5033729;28;20033;-68
2022/08/24 09:45:49;;;;;;;4.30;2.03;;;;;;;36.81;29.51;100188.53;5037499;28;20021;-68
2022/08/24 09:48:15;;;;;;;3.42;1.70;;;;;;;36.74;30.26;100189.53;5052935;28;20021;-68
2022/08/24 09:51:05;;;;;;;4.13;1.90;;;;;;;36.94;30.97;100185.72;5052935;28;20040;-67
2022/08/24 09:53:55;;;;;;;2.92;1.70;;;;;;;37.16;30.28;100172.47;5052804;28;20049;-67
2022/08/24 09:56:54;;;;;;;2.38;1.52;;;;;;;37.66;30.02;100168.06;5052943;28;20075;-67
2022/08/24 09:59:43;;;;;;;3.50;1.90;;;;;;;37.81;29.98;100155.59;5032904;28;20496;-67
2022/08/24 10:02:14;;;;;;;4.55;1.65;;;;;;;37.83;29.41;100167.34;5032854;28;20075;-67
2022/08/24 10:05:04;;;;;;;4.00;1.83;;;;;;;38.24;29.46;100172.44;5031974;28;20404;-67
2022/08/24 10:07:47;;;;;;;3.17;1.70;;;;;;;38.39;28.86;100159.09;5033918;28;20044;-67
2022/08/24 10:10:39;;;;;;;3.80;1.77;;;;;;;38.64;28.92;100154.44;5052298;28;20033;-67
2022/08/24 10:13:22;;;;;;;4.35;1.75;;;;;;;38.69;28.52;100153.72;5032789;28;20056;-68
2022/08/24 10:15:59;;;;;;;;;;;;;;;38.86;28.32;100161.28;5032924;28;20048;-67
2022/08/24 10:18:43;;;;;;;5.53;1.80;;;;;;;39.18;26.17;100148.13;5033112;28;19913;-68
2022/08/24 10:21:43;;;;;;;4.28;1.50;;;;;;;39.01;27.16;100152.56;5033402;28;20365;-68
2022/08/24 10:24:27;;;;;;;3.90;1.60;;;;;;;38.82;27.65;100143.34;5033064;28;20380;-68
2022/08/24 10:27:19;;;;;;;2.78;1.52;;;;;;;38.56;27.47;100137.13;5033427;28;20508;-69
2022/08/24 10:30:06;;;;;;;5.03;1.60;;;;;;;38.56;28.43;100134.34;5032005;28;20022;-68
2022/08/24 10:32:56;;;;;;;2.45;1.48;;;;;;;38.46;26.96;100131.22;5032070;28;20763;-68
2022/08/24 10:35:31;;;;;;;3.58;1.40;;;;;;;38.64;27.50;100128.53;5032296;28;20025;-68
2022/08/24 10:41:20;;;;;;;2.88;1.48;;;;;;;38.43;25.94;100131.69;5051796;28;20115;-68
2022/08/24 10:44:07;;;;;;;2.42;1.52;;;;;;;38.01;25.85;100123.00;5051777;28;20039;-68
2022/08/24 10:46:46;;;;;;;2.22;1.40;;;;;;;38.00;26.38;100121.31;5051252;28;20090;-68
2022/08/24 10:49:36;;;;;;;6.53;1.83;;;;;;;37.96;27.01;100128.38;5051373;28;20032;-68
2022/08/24 10:52:24;;;;;;;4.00;1.60;;;;;;;38.36;26.38;100119.75;5051218;28;20412;-68
2022/08/24 10:54:50;;;;;;;3.92;1.60;;;;;;;38.84;27.05;100112.50;5031678;28;20045;-68
2022/08/24 10:58:03;;;;;;;4.72;1.70;;;;;;;39.38;24.91;100115.31;5031370;28;20125;-68
2022/08/24 11:00:29;;;;;;;;;;;;;;;39.43;25.44;100105.19;5027093;28;20393;-68
2022/08/24 11:03:10;;;;;;;4.10;1.25;;;;;;;39.63;25.01;100095.75;5032169;28;19920;-68
2022/08/24 11:05:48;;;;;;;3.45;1.42;;;;;;;39.64;24.43;100103.84;5032020;28;20018;-67
2022/08/24 11:08:29;;;;;;;2.42;1.20;;;;;;;39.73;24.56;100102.47;5031388;28;20025;-67
2022/08/24 11:11:11;;;;;;;2.58;1.20;;;;;;;39.58;24.01;100092.81;5032166;28;20639;-68
2022/08/24 11:14:08;;;;;;;3.05;1.13;;;;;;;39.42;24.08;100094.28;5022803;28;20057;-68
2022/08/24 11:16:39;;;;;;;2.60;1.25;;;;;;;39.84;24.20;100103.59;5012334;28;20072;-68
2022/08/24 11:19:12;;;;;;;2.23;1.00;;;;;;;40.04;24.38;100093.88;5011948;28;20105;-69
2022/08/24 11:21:48;;;;;;;2.53;1.35;;;;;;;39.68;24.33;100082.81;5011909;28;20022;-67
2022/08/24 11:24:17;;;;;;;2.28;1.10;;;;;;;39.42;24.17;100083.16;5011690;28;20034;-67
2022/08/24 11:26:51;;;;;;;4.35;1.58;;;;;;;39.14;25.59;100086.50;5011511;28;20026;-68
2022/08/24 11:29:17;;;;;;;2.35;1.10;;;;;;;38.95;25.48;100078.34;5011394;28;20153;-67
2022/08/24 11:31:48;;;;;;;2.92;1.15;;;;;;;38.94;24.86;100082.22;5011520;28;20125;-68
2022/08/24 11:34:18;;;;;;;4.93;1.30;;;;;;;38.90;25.11;100079.03;5011906;28;20022;-68
2022/08/24 11:36:44;;;;;;;2.80;1.40;;;;;;;39.07;24.52;100077.38;5012176;28;20033;-68
2022/08/24 11:39:31;;;;;;;2.80;1.30;;;;;;;38.71;23.94;100076.47;5027334;28;20025;-68
2022/08/24 11:42:05;;;;;;;3.92;1.30;;;;;;;38.47;23.64;100080.13;5031855;28;20110;-68
2022/08/24 11:44:46;;;;;;;5.13;1.70;;;;;;;38.55;24.80;100075.13;5031780;28;20400;-67
2022/08/24 11:47:35;;;;;;;2.38;1.42;;;;;;;39.03;24.05;100078.09;5031662;28;20021;-68